Time;durP1;ratioP1;P1;durP2;ratioP2;P2;SDS_P1;SDS_P2;PMS_P1;PMS_P2;Temp;Humidity;BMP_temperature;BMP_pressure;BME280_temperature;BME280_humidity;BME280_pressure;Samples;Min_cycle;Max_cycle;Signal;HPM_P1;HPM_P2
2021/12/23 00:04:53;;;;;;;21.47;6.47;;;;;;;;;;10316443;28;20058;-73
2021/12/23 00:10:09;;;;;;;14.40;4.47;;;;;;;;;;10305526;28;20391;-74
2021/12/23 00:15:23;;;;;;;88.13;16.40;;;;;;;;;;10309360;28;20034;-73
2021/12/23 00:25:50;;;;;;;26.10;8.60;;;;;;;;;;10306639;28;20034;-74
2021/12/23 00:30:54;;;;;;;24.00;9.00;;;;;;;;;;10313315;28;20113;-74
2021/12/23 00:35:59;;;;;;;11.68;5.85;;;;;;;;;;10310419;28;20061;-73
2021/12/23 00:41:03;;;;;;;8.67;4.47;;;;;;;;;;10310606;28;20026;-73
2021/12/23 00:46:06;;;;;;;11.87;4.47;;;;;;;;;;10302415;28;20042;-73
2021/12/23 00:51:12;;;;;;;18.90;5.43;;;;;;;;;;10321213;23;20092;-70
2021/12/23 00:56:14;;;;;;;7.57;4.40;;;;;;;;;;10327750;28;20100;-69
2021/12/23 01:01:17;;;;;;;25.97;11.13;;;;;;;;;;10302710;28;20057;-71
2021/12/23 01:06:23;;;;;;;15.73;6.97;;;;;;;;;;10315179;28;20041;-69
2021/12/23 01:11:27;;;;;;;15.90;6.47;;;;;;;;;;10296081;28;20034;-71
2021/12/23 01:16:48;;;;;;;23.08;8.13;;;;;;;;;;10310041;28;20111;-70
2021/12/23 01:21:53;;;;;;;15.37;5.07;;;;;;;;;;10314032;28;20030;-69
2021/12/23 01:26:56;;;;;;;9.30;2.77;;;;;;;;;;10301557;28;20271;-68
2021/12/23 01:32:00;;;;;;;10.53;5.50;;;;;;;;;;10316385;28;20030;-69
2021/12/23 01:37:05;;;;;;;6.67;2.37;;;;;;;;;;10288948;28;20034;-69
2021/12/23 01:42:08;;;;;;;7.93;2.87;;;;;;;;;;10320862;28;20062;-70
2021/12/23 01:47:11;;;;;;;7.07;3.38;;;;;;;;;;10323200;28;20112;-69
2021/12/23 01:52:16;;;;;;;7.60;3.57;;;;;;;;;;10326120;28;20049;-70
2021/12/23 01:57:19;;;;;;;7.87;3.67;;;;;;;;;;10293676;28;20047;-70
2021/12/23 02:02:22;;;;;;;18.87;6.60;;;;;;;;;;10320833;28;20073;-70
2021/12/23 02:07:27;;;;;;;4.57;1.38;;;;;;;;;;10315781;28;20053;-70
2021/12/23 02:12:30;;;;;;;9.37;4.33;;;;;;;;;;10331045;28;20128;-72
2021/12/23 02:17:35;;;;;;;14.60;6.43;;;;;;;;;;10323324;28;20035;-71
2021/12/23 02:22:40;;;;;;;16.30;6.23;;;;;;;;;;10320852;28;20137;-71
2021/12/23 02:27:43;;;;;;;16.23;4.00;;;;;;;;;;10323213;28;20034;-70
2021/12/23 02:32:46;;;;;;;12.13;5.33;;;;;;;;;;10325240;28;20090;-71
2021/12/23 02:37:51;;;;;;;17.48;5.85;;;;;;;;;;10308022;28;20348;-71
2021/12/23 02:42:54;;;;;;;2.67;1.83;;;;;;;;;;10328884;28;20054;-70
2021/12/23 02:47:57;;;;;;;18.42;5.45;;;;;;;;;;10334841;28;20126;-72
2021/12/23 02:53:01;;;;;;;8.90;3.87;;;;;;;;;;10319200;28;20407;-71
2021/12/23 02:58:04;;;;;;;;;;;;;;;;;;10354243;28;20097;-71
2021/12/23 03:03:07;;;;;;;5.57;3.00;;;;;;;;;;10332893;28;19942;-69
2021/12/23 03:08:11;;;;;;;9.63;4.57;;;;;;;;;;10347291;28;20157;-70
2021/12/23 03:13:14;;;;;;;10.90;4.47;;;;;;;;;;10337975;28;20137;-69
2021/12/23 03:18:17;;;;;;;9.70;4.47;;;;;;;;;;10342109;28;20064;-70
2021/12/23 03:23:21;;;;;;;7.47;3.17;;;;;;;;;;10344640;28;20041;-71
2021/12/23 03:28:26;;;;;;;8.43;4.63;;;;;;;;;;10323696;28;20062;-70
2021/12/23 03:33:29;;;;;;;9.30;2.80;;;;;;;;;;10308222;28;20045;-70
2021/12/23 03:38:34;;;;;;;12.17;4.67;;;;;;;;;;10330557;28;20039;-70
2021/12/23 03:43:37;;;;;;;12.57;5.03;;;;;;;;;;10316675;28;20419;-70
2021/12/23 03:48:40;;;;;;;12.40;4.27;;;;;;;;;;10305674;28;20034;-70
2021/12/23 03:53:44;;;;;;;9.97;4.97;;;;;;;;;;10322219;28;20065;-70
2021/12/23 03:58:47;;;;;;;;;;;;;;;;;;10309617;28;20104;-71
2021/12/23 04:03:50;;;;;;;10.97;3.13;;;;;;;;;;10320975;28;19922;-69
2021/12/23 04:08:55;;;;;;;0.68;0.65;;;;;;;;;;10336612;28;20038;-70
2021/12/23 04:13:58;;;;;;;8.37;2.10;;;;;;;;;;10324460;28;20490;-71
2021/12/23 04:19:06;;;;;;;10.40;3.42;;;;;;;;;;10308653;28;20042;-70
2021/12/23 04:24:11;;;;;;;17.57;6.57;;;;;;;;;;10320622;28;20037;-70
2021/12/23 04:29:14;;;;;;;12.67;5.23;;;;;;;;;;10323621;28;20041;-71
2021/12/23 04:34:18;;;;;;;13.27;5.23;;;;;;;;;;10318584;28;20078;-70
2021/12/23 04:39:22;;;;;;;13.33;5.20;;;;;;;;;;10321858;28;20042;-70
2021/12/23 04:44:25;;;;;;;;;;;;;;;;;;10336020;28;20045;-70
2021/12/23 04:49:27;;;;;;;18.90;5.57;;;;;;;;;;10307785;28;19932;-70
2021/12/23 04:54:32;;;;;;;15.90;5.30;;;;;;;;;;10326743;28;21665;-70
2021/12/23 04:59:35;;;;;;;13.30;5.17;;;;;;;;;;10306484;28;20041;-68
2021/12/23 05:04:38;;;;;;;16.37;5.13;;;;;;;;;;10320367;28;20057;-72
2021/12/23 05:09:42;;;;;;;4.90;1.97;;;;;;;;;;10303096;28;20038;-71
2021/12/23 05:14:45;;;;;;;;;;;;;;;;;;10310197;28;20102;-70
2021/12/23 05:19:47;;;;;;;10.60;1.93;;;;;;;;;;10297998;28;19968;-69
2021/12/23 05:24:52;;;;;;;5.10;2.07;;;;;;;;;;10299883;28;20165;-69
2021/12/23 05:29:54;;;;;;;;;;;;;;;;;;10303592;28;20547;-70
2021/12/23 05:34:57;;;;;;;0.67;0.67;;;;;;;;;;10321867;28;19949;-72
2021/12/23 05:40:02;;;;;;;0.97;0.87;;;;;;;;;;10311473;28;20038;-71
2021/12/23 05:45:05;;;;;;;2.83;1.80;;;;;;;;;;10314646;28;20392;-69
2021/12/23 05:50:09;;;;;;;9.98;2.65;;;;;;;;;;10299887;28;20643;-70
2021/12/23 05:55:14;;;;;;;16.42;6.15;;;;;;;;;;10323188;28;20141;-69
2021/12/23 06:00:18;;;;;;;8.90;2.57;;;;;;;;;;10298430;28;20039;-70
2021/12/23 06:05:21;;;;;;;16.07;6.10;;;;;;;;;;10311988;28;20108;-70
2021/12/23 06:10:25;;;;;;;15.70;5.83;;;;;;;;;;10296250;28;20062;-70
2021/12/23 06:15:28;;;;;;;4.17;2.70;;;;;;;;;;10311920;28;20039;-70
2021/12/23 06:20:31;;;;;;;3.40;2.27;;;;;;;;;;10311635;28;20048;-71
2021/12/23 06:25:35;;;;;;;6.93;2.27;;;;;;;;;;10308160;28;20057;-70
2021/12/23 06:30:38;;;;;;;17.57;5.90;;;;;;;;;;10310309;28;20042;-70
2021/12/23 06:35:41;;;;;;;5.93;3.13;;;;;;;;;;10333212;28;20034;-73
2021/12/23 06:40:46;;;;;;;11.53;4.90;;;;;;;;;;10316174;28;20061;-69
2021/12/23 06:45:49;;;;;;;4.53;2.77;;;;;;;;;;10303416;28;20045;-70
2021/12/23 06:51:00;;;;;;;8.23;2.87;;;;;;;;;;10324081;28;20031;-70
2021/12/23 06:56:05;;;;;;;13.53;4.93;;;;;;;;;;10273710;28;20138;-73
2021/12/23 07:01:07;;;;;;;18.07;7.10;;;;;;;;;;10266683;28;20031;-75
2021/12/23 07:06:17;;;;;;;13.65;5.40;;;;;;;;;;10246585;28;20050;-74
2021/12/23 07:11:21;;;;;;;24.55;8.45;;;;;;;;;;10245461;28;20114;-73
2021/12/23 07:16:25;;;;;;;16.20;6.37;;;;;;;;;;10261519;28;20032;-73
2021/12/23 07:21:27;;;;;;;3.43;1.73;;;;;;;;;;10244056;28;20035;-73
2021/12/23 07:26:32;;;;;;;4.13;1.03;;;;;;;;;;10264473;28;20701;-74
2021/12/23 07:31:35;;;;;;;21.03;7.47;;;;;;;;;;10246822;28;20134;-72
2021/12/23 07:36:40;;;;;;;9.05;3.88;;;;;;;;;;10237861;28;20046;-74
2021/12/23 07:41:43;;;;;;;;;;;;;;;;;;10258514;28;20114;-73
2021/12/23 07:47:07;;;;;;;13.27;5.03;;;;;;;;;;10247622;28;20009;-73
2021/12/23 07:52:10;;;;;;;22.93;7.93;;;;;;;;;;10237092;28;20031;-73
2021/12/23 07:57:13;;;;;;;23.93;8.27;;;;;;;;;;10257181;28;20039;-73
2021/12/23 08:02:17;;;;;;;23.63;8.10;;;;;;;;;;10242264;28;20043;-73
2021/12/23 08:07:21;;;;;;;15.73;5.40;;;;;;;;;;10251498;28;20106;-73
2021/12/23 08:12:27;;;;;;;27.73;9.93;;;;;;;;;;10253063;28;20032;-74
2021/12/23 08:17:31;;;;;;;25.13;9.37;;;;;;;;;;10270208;28;20039;-74
2021/12/23 08:22:34;;;;;;;25.13;9.17;;;;;;;;;;10277760;28;20414;-74
2021/12/23 08:27:37;;;;;;;20.53;6.77;;;;;;;;;;10301520;28;20039;-72
2021/12/23 08:32:42;;;;;;;25.20;8.97;;;;;;;;;;10274122;28;20039;-74
2021/12/23 08:37:46;;;;;;;8.60;3.50;;;;;;;;;;10291073;28;20058;-75
2021/12/23 08:42:49;;;;;;;7.53;3.63;;;;;;;;;;10274173;28;20050;-74
2021/12/23 08:47:55;;;;;;;17.93;6.63;;;;;;;;;;10297046;28;20030;-76
2021/12/23 08:52:58;;;;;;;32.10;9.20;;;;;;;;;;10278366;28;20511;-74
2021/12/23 08:58:04;;;;;;;20.47;7.87;;;;;;;;;;10281124;28;20042;-74
2021/12/23 09:03:09;;;;;;;22.60;7.83;;;;;;;;;;10279781;28;20267;-74
2021/12/23 09:08:12;;;;;;;28.93;9.43;;;;;;;;;;10298214;28;20051;-75
2021/12/23 09:13:15;;;;;;;12.50;4.87;;;;;;;;;;10274499;28;20083;-74
2021/12/23 09:18:20;;;;;;;21.37;8.73;;;;;;;;;;10288340;28;20074;-74
2021/12/23 09:23:23;;;;;;;9.97;3.97;;;;;;;;;;10296066;28;20411;-73
2021/12/23 09:28:33;;;;;;;14.03;6.37;;;;;;;;;;10284899;28;20659;-74
2021/12/23 09:33:38;;;;;;;10.03;3.70;;;;;;;;;;10291511;28;20425;-76
2021/12/23 09:38:40;;;;;;;;;;;;;;;;;;10302003;28;20276;-76
2021/12/23 09:43:43;;;;;;;10.37;5.47;;;;;;;;;;10287852;28;20334;-75
2021/12/23 09:48:48;;;;;;;13.17;5.47;;;;;;;;;;10302807;28;20731;-74
2021/12/23 09:53:55;;;;;;;11.73;6.33;;;;;;;;;;10280421;28;20039;-75
2021/12/23 09:58:59;;;;;;;8.80;2.93;;;;;;;;;;10298040;28;20415;-75
2021/12/23 10:04:03;;;;;;;18.05;6.43;;;;;;;;;;10290524;28;20637;-74
2021/12/23 10:09:06;;;;;;;10.67;4.83;;;;;;;;;;10287584;28;20565;-71
2021/12/23 10:30:49;;;;;;;14.63;6.63;;;;;;;;;;10306566;28;20035;-76
2021/12/23 10:41:18;;;;;;;20.40;6.95;;;;;;;;;;10285106;28;20042;-73
2021/12/23 10:46:23;;;;;;;14.63;6.43;;;;;;;;;;10291745;28;20134;-74
2021/12/23 10:51:27;;;;;;;15.20;6.57;;;;;;;;;;10286363;28;20425;-73
2021/12/23 11:02:20;;;;;;;6.85;3.75;;;;;;;;;;10278197;28;20614;-74
2021/12/23 11:07:38;;;;;;;14.68;7.07;;;;;;;;;;10234346;28;20047;-75
2021/12/23 11:40:09;;;;;;;11.93;5.20;;;;;;;;;;10281140;28;20861;-74
2021/12/23 11:45:12;;;;;;;9.70;4.65;;;;;;;;;;10296492;28;20026;-74
2021/12/23 11:50:22;;;;;;;14.45;5.47;;;;;;;;;;10298460;28;20510;-74
2021/12/23 11:55:27;;;;;;;18.38;5.95;;;;;;;;;;10280077;28;20034;-75
2021/12/23 12:00:41;;;;;;;18.00;5.43;;;;;;;;;;10299259;28;20380;-75
2021/12/23 12:05:45;;;;;;;20.27;6.65;;;;;;;;;;10301258;28;20058;-75
2021/12/23 12:10:49;;;;;;;15.48;5.55;;;;;;;;;;10285172;28;20051;-73
2021/12/23 12:15:53;;;;;;;11.30;5.38;;;;;;;;;;10295147;28;20041;-74
2021/12/23 12:20:59;;;;;;;10.83;4.43;;;;;;;;;;10272671;28;20451;-74
2021/12/23 12:26:06;;;;;;;11.43;5.32;;;;;;;;;;10296151;28;20499;-74
2021/12/23 12:31:10;;;;;;;15.77;5.55;;;;;;;;;;10282092;28;20078;-73
2021/12/23 12:36:15;;;;;;;11.85;5.35;;;;;;;;;;10300648;28;20050;-73
2021/12/23 12:41:27;;;;;;;15.75;6.13;;;;;;;;;;10285623;28;20574;-74
2021/12/23 12:46:58;;;;;;;14.00;5.75;;;;;;;;;;10277399;28;20045;-73
2021/12/23 12:52:23;;;;;;;17.77;6.22;;;;;;;;;;10294662;28;20129;-74
2021/12/23 12:57:31;;;;;;;15.80;5.63;;;;;;;;;;10294843;28;20080;-74
2021/12/23 13:02:34;;;;;;;11.52;5.50;;;;;;;;;;10298523;28;20496;-74
2021/12/23 13:07:38;;;;;;;12.50;4.73;;;;;;;;;;10296272;28;20038;-75
2021/12/23 13:12:49;;;;;;;24.00;5.80;;;;;;;;;;10294335;28;20039;-74
2021/12/23 13:17:57;;;;;;;10.07;4.07;;;;;;;;;;10290577;28;20038;-75
2021/12/23 13:23:01;;;;;;;13.43;5.53;;;;;;;;;;10290877;28;20421;-73
2021/12/23 13:28:07;;;;;;;15.63;5.18;;;;;;;;;;10292140;28;20050;-75
2021/12/23 13:33:12;;;;;;;13.60;4.82;;;;;;;;;;10281033;28;20162;-73
2021/12/23 13:38:42;;;;;;;14.35;5.78;;;;;;;;;;10279031;28;20042;-75
2021/12/23 13:43:47;;;;;;;13.50;5.35;;;;;;;;;;10235769;28;20633;-74
2021/12/23 13:48:56;;;;;;;13.02;5.40;;;;;;;;;;10284304;28;20042;-74
2021/12/23 13:54:08;;;;;;;14.75;5.28;;;;;;;;;;10272478;28;20057;-75
2021/12/23 13:59:17;;;;;;;13.63;5.80;;;;;;;;;;10297339;28;20062;-74
2021/12/23 14:04:31;;;;;;;15.82;6.13;;;;;;;;;;10278310;28;20122;-75
2021/12/23 14:09:35;;;;;;;12.33;5.20;;;;;;;;;;10299688;28;20038;-75
2021/12/23 14:14:51;;;;;;;12.68;4.90;;;;;;;;;;10279611;28;20050;-75
2021/12/23 14:23:11;;;;;;;11.40;4.80;;;;;;;;;;10306723;28;20042;-73
2021/12/23 14:25:25;;;;;;;12.57;4.87;;;;;;;;;;10307263;28;20056;-74
2021/12/23 14:30:37;;;;;;;16.47;5.80;;;;;;;;;;10298110;28;20038;-73
2021/12/23 14:35:40;;;;;;;14.68;5.47;;;;;;;;;;10296939;28;20062;-75
2021/12/23 14:40:44;;;;;;;22.65;4.90;;;;;;;;;;10296438;28;20054;-73
2021/12/23 14:45:57;;;;;;;16.27;5.68;;;;;;;;;;10300862;28;20027;-74
2021/12/23 14:51:02;;;;;;;16.57;6.07;;;;;;;;;;10275808;28;20580;-75
2021/12/23 14:56:05;;;;;;;17.40;6.13;;;;;;;;;;10293305;28;20121;-74
2021/12/23 15:01:18;;;;;;;17.37;7.13;;;;;;;;;;10284645;28;20588;-73
2021/12/23 15:06:21;;;;;;;22.13;8.38;;;;;;;;;;10296138;28;20035;-74
2021/12/23 15:11:27;;;;;;;25.30;8.57;;;;;;;;;;10297747;28;20124;-74
2021/12/23 15:16:32;;;;;;;21.30;7.67;;;;;;;;;;10281774;28;20824;-74
2021/12/23 15:21:39;;;;;;;15.67;7.30;;;;;;;;;;10296557;28;20038;-74
2021/12/23 15:26:48;;;;;;;18.17;7.07;;;;;;;;;;10293701;28;20085;-74
2021/12/23 15:31:57;;;;;;;20.70;7.93;;;;;;;;;;10282945;28;20031;-74
2021/12/23 15:37:00;;;;;;;19.50;7.73;;;;;;;;;;10291142;28;20047;-75
2021/12/23 15:42:04;;;;;;;20.93;7.80;;;;;;;;;;10296554;28;20503;-74
2021/12/23 15:47:09;;;;;;;19.25;8.20;;;;;;;;;;10293128;28;20126;-74
2021/12/23 15:52:13;;;;;;;23.07;8.27;;;;;;;;;;10298232;28;20041;-73
2021/12/23 15:57:16;;;;;;;18.47;8.17;;;;;;;;;;10298079;28;20030;-74
2021/12/23 16:02:21;;;;;;;17.87;8.27;;;;;;;;;;10279481;28;20042;-74
2021/12/23 16:07:26;;;;;;;16.17;6.33;;;;;;;;;;10293107;28;20042;-73
2021/12/23 16:12:30;;;;;;;15.90;6.70;;;;;;;;;;10292685;28;20649;-74
2021/12/23 16:17:35;;;;;;;19.60;7.97;;;;;;;;;;10286265;28;20049;-74
2021/12/23 16:22:38;;;;;;;24.05;8.48;;;;;;;;;;10290719;28;20035;-74
2021/12/23 16:27:41;;;;;;;23.20;8.53;;;;;;;;;;10294156;28;20046;-73
2021/12/23 16:32:46;;;;;;;27.70;9.47;;;;;;;;;;10287331;28;20058;-73
2021/12/23 16:37:50;;;;;;;67.77;27.43;;;;;;;;;;10300981;28;20499;-74
2021/12/23 16:42:53;;;;;;;230.10;58.07;;;;;;;;;;10295317;28;20050;-73
2021/12/23 16:47:57;;;;;;;35.03;12.67;;;;;;;;;;10284686;28;20057;-74
2021/12/23 16:53:01;;;;;;;15.17;4.30;;;;;;;;;;10280117;28;20090;-74
2021/12/23 16:58:04;;;;;;;6.33;2.60;;;;;;;;;;10293916;28;20541;-73
2021/12/23 17:03:09;;;;;;;2.65;1.42;;;;;;;;;;10278134;28;20066;-74
2021/12/23 17:08:12;;;;;;;;;;;;;;;;;;10296653;28;20034;-74
2021/12/23 17:13:15;;;;;;;1.23;0.90;;;;;;;;;;10294635;28;20016;-74
2021/12/23 17:18:33;;;;;;;2.67;1.53;;;;;;;;;;10279063;28;20043;-76
2021/12/23 17:23:37;;;;;;;1.40;0.73;;;;;;;;;;10274162;28;20306;-74
2021/12/23 17:28:40;;;;;;;1.92;1.23;;;;;;;;;;10275395;28;20554;-74
2021/12/23 17:33:45;;;;;;;6.13;2.10;;;;;;;;;;10289424;28;20031;-74
2021/12/23 17:38:49;;;;;;;4.13;1.77;;;;;;;;;;10285248;28;20057;-75
2021/12/23 17:43:52;;;;;;;7.25;2.35;;;;;;;;;;10281452;28;20113;-74
2021/12/23 17:49:00;;;;;;;17.40;4.73;;;;;;;;;;10287231;28;20050;-74
2021/12/23 17:54:06;;;;;;;8.60;2.57;;;;;;;;;;10296644;28;20379;-74
2021/12/23 17:59:11;;;;;;;70.80;15.43;;;;;;;;;;10287376;28;20039;-74
2021/12/23 18:04:15;;;;;;;61.75;13.65;;;;;;;;;;10295004;28;20035;-73
2021/12/23 18:09:19;;;;;;;26.53;6.33;;;;;;;;;;10293066;28;20038;-74
2021/12/23 18:14:22;;;;;;;10.80;3.87;;;;;;;;;;10285632;28;20034;-75
2021/12/23 18:19:27;;;;;;;8.87;3.10;;;;;;;;;;10274519;28;20038;-74
2021/12/23 18:24:29;;;;;;;;;;;;;;;;;;10269698;28;20034;-73
2021/12/23 18:29:33;;;;;;;7.17;2.70;;;;;;;;;;10289085;28;19961;-74
2021/12/23 18:34:41;;;;;;;7.43;3.63;;;;;;;;;;10293227;28;20154;-74
2021/12/23 18:39:58;;;;;;;6.57;3.23;;;;;;;;;;10270430;28;20058;-73
2021/12/23 18:45:06;;;;;;;34.40;8.87;;;;;;;;;;10278181;28;20039;-73
2021/12/23 18:50:11;;;;;;;10.67;3.93;;;;;;;;;;10294922;28;20041;-73
2021/12/23 18:55:14;;;;;;;6.33;2.50;;;;;;;;;;10299143;23;20039;-71
2021/12/23 19:00:21;;;;;;;15.60;5.33;;;;;;;;;;10287152;28;20495;-69
2021/12/23 19:05:29;;;;;;;8.00;2.70;;;;;;;;;;10269222;28;20031;-70
2021/12/23 19:10:32;;;;;;;7.45;3.13;;;;;;;;;;10251903;28;20054;-70
2021/12/23 19:15:35;;;;;;;4.37;1.60;;;;;;;;;;10266568;28;20039;-70
2021/12/23 19:20:39;;;;;;;6.70;2.30;;;;;;;;;;10241979;28;20066;-70
2021/12/23 19:25:42;;;;;;;3.93;2.03;;;;;;;;;;10262395;28;20149;-70
2021/12/23 19:30:46;;;;;;;7.10;2.60;;;;;;;;;;10242835;28;20050;-67
2021/12/23 19:35:50;;;;;;;3.37;1.47;;;;;;;;;;10244519;28;20098;-71
2021/12/23 19:40:54;;;;;;;2.40;1.20;;;;;;;;;;10259488;28;20322;-70
2021/12/23 19:45:56;;;;;;;2.63;1.35;;;;;;;;;;10265053;28;20050;-71
2021/12/23 19:51:01;;;;;;;2.17;1.50;;;;;;;;;;10256871;28;20555;-70
2021/12/23 19:56:03;;;;;;;;;;;;;;;;;;10257574;28;20055;-70
2021/12/23 20:01:06;;;;;;;0.70;0.65;;;;;;;;;;10241467;28;19929;-70
2021/12/23 20:06:10;;;;;;;2.80;0.98;;;;;;;;;;10273744;28;20073;-71
2021/12/23 20:11:13;;;;;;;;;;;;;;;;;;10257949;28;20035;-70
2021/12/23 20:16:16;;;;;;;1.77;1.00;;;;;;;;;;10249016;28;20430;-70
2021/12/23 20:21:21;;;;;;;0.63;0.60;;;;;;;;;;10235085;28;20039;-70
2021/12/23 20:26:24;;;;;;;2.35;0.98;;;;;;;;;;10240208;28;20533;-71
2021/12/23 20:31:27;;;;;;;1.90;0.70;;;;;;;;;;10244246;28;20608;-71
2021/12/23 20:36:32;;;;;;;4.67;1.60;;;;;;;;;;10260869;28;20626;-71
2021/12/23 20:41:35;;;;;;;4.32;1.30;;;;;;;;;;10257459;28;20043;-69
2021/12/23 20:46:38;;;;;;;1.33;0.80;;;;;;;;;;10237986;28;20078;-70
2021/12/23 20:51:42;;;;;;;2.37;0.90;;;;;;;;;;10255881;28;20069;-71
2021/12/23 20:56:48;;;;;;;0.45;0.45;;;;;;;;;;10256508;28;20027;-70
2021/12/23 21:01:51;;;;;;;1.13;0.60;;;;;;;;;;10238526;28;20158;-70
2021/12/23 21:06:55;;;;;;;2.70;1.10;;;;;;;;;;10258274;28;20034;-70
2021/12/23 21:11:58;;;;;;;1.73;1.05;;;;;;;;;;10241153;28;20046;-73
2021/12/23 21:17:01;;;;;;;1.85;1.13;;;;;;;;;;10252221;28;20102;-71
2021/12/23 21:22:07;;;;;;;3.15;1.05;;;;;;;;;;10257397;28;20110;-71
2021/12/23 21:27:12;;;;;;;0.80;0.80;;;;;;;;;;10254248;28;20053;-70
2021/12/23 21:32:14;;;;;;;2.17;1.10;;;;;;;;;;10249432;28;20043;-69
2021/12/23 21:37:19;;;;;;;1.65;0.93;;;;;;;;;;10252387;28;20511;-70
2021/12/23 21:42:21;;;;;;;;;;;;;;;;;;10248663;28;20058;-71
2021/12/23 21:47:25;;;;;;;1.92;1.00;;;;;;;;;;10250687;28;20278;-70
2021/12/23 21:52:30;;;;;;;1.75;0.70;;;;;;;;;;10254418;28;20388;-70
2021/12/23 21:57:33;;;;;;;4.03;1.98;;;;;;;;;;10269864;28;20559;-71
2021/12/23 22:02:36;;;;;;;1.25;0.73;;;;;;;;;;10235369;28;20054;-70
2021/12/23 22:07:41;;;;;;;2.88;1.50;;;;;;;;;;10254185;28;20053;-70
2021/12/23 22:12:44;;;;;;;1.73;1.00;;;;;;;;;;10247132;28;20039;-70
2021/12/23 22:17:50;;;;;;;1.00;0.75;;;;;;;;;;10249015;28;20046;-68
2021/12/23 22:23:00;;;;;;;1.77;0.90;;;;;;;;;;10254559;28;20039;-69
2021/12/23 22:28:04;;;;;;;0.77;0.40;;;;;;;;;;10263548;28;20041;-71
2021/12/23 22:33:08;;;;;;;1.90;0.55;;;;;;;;;;10262759;28;20085;-69
2021/12/23 22:38:12;;;;;;;1.40;0.90;;;;;;;;;;10258257;28;20717;-70
2021/12/23 22:43:15;;;;;;;3.22;1.00;;;;;;;;;;10278589;28;20057;-70
2021/12/23 22:48:19;;;;;;;4.60;0.77;;;;;;;;;;10284537;28;20038;-68
2021/12/23 22:53:23;;;;;;;1.80;1.20;;;;;;;;;;10283076;28;20110;-70
2021/12/23 22:58:27;;;;;;;4.57;1.13;;;;;;;;;;10283270;28;20057;-70
2021/12/23 23:03:31;;;;;;;3.10;1.02;;;;;;;;;;10302667;28;20042;-70
2021/12/23 23:08:36;;;;;;;0.80;0.47;;;;;;;;;;10296167;28;20612;-68
2021/12/23 23:13:47;;;;;;;4.40;1.27;;;;;;;;;;10289062;28;20420;-68
2021/12/23 23:18:51;;;;;;;1.30;0.70;;;;;;;;;;10301857;28;20121;-67
2021/12/23 23:24:00;;;;;;;1.10;0.63;;;;;;;;;;10303216;28;20050;-69
2021/12/23 23:40:01;;;;;;;1.45;1.10;;;;;;;;;;10338583;28;20086;-69
2021/12/23 23:45:05;;;;;;;2.15;0.93;;;;;;;;;;10311022;28;20631;-70
2021/12/23 23:50:09;;;;;;;1.27;1.00;;;;;;;;;;10313603;28;20081;-69
2021/12/23 23:55:19;;;;;;;2.87;1.10;;;;;;;;;;10303823;28;20089;-70
